Time;durP1;ratioP1;P1;durP2;ratioP2;P2;SDS_P1;SDS_P2;PMS_P1;PMS_P2;Temp;Humidity;BMP_temperature;BMP_pressure;BME280_temperature;BME280_humidity;BME280_pressure;Samples;Min_cycle;Max_cycle;Signal;HPM_P1;HPM_P2
2023/08/16 00:01:37;;;;;;;;;2.50;2.50;;;;;25.13;46.57;101381.63;4979430;28;45417;-39
2023/08/16 00:04:03;;;;;;;;;3.00;2.00;;;;;25.16;46.35;101391.16;4979406;28;45436;-35
2023/08/16 00:06:28;;;;;;;;;2.25;1.25;;;;;25.14;46.71;101385.94;4979746;28;45240;-36
2023/08/16 00:08:58;;;;;;;;;4.50;3.50;;;;;25.15;46.33;101384.16;4978755;28;62255;-37
2023/08/16 00:11:23;;;;;;;;;4.00;2.75;;;;;25.15;46.24;101386.81;4977967;28;45708;-42
2023/08/16 00:13:49;;;;;;;;;3.00;3.00;;;;;25.14;46.51;101379.81;4979733;28;45331;-36
2023/08/16 00:16:14;;;;;;;;;2.00;2.00;;;;;25.14;46.93;101383.28;4979163;28;48799;-38
2023/08/16 00:18:40;;;;;;;;;2.75;2.75;;;;;25.14;46.83;101383.28;4978968;28;52464;-38
2023/08/16 00:21:05;;;;;;;;;3.25;2.25;;;;;25.14;46.79;101382.47;4979087;28;45385;-42
2023/08/16 00:23:30;;;;;;;;;3.50;1.50;;;;;25.14;46.91;101387.75;4979230;28;45378;-46
2023/08/16 00:25:56;;;;;;;;;3.00;3.00;;;;;25.15;46.29;101381.50;4979327;28;45461;-40
2023/08/16 00:28:22;;;;;;;;;5.25;3.00;;;;;25.14;46.39;101382.47;4979317;28;46120;-40
2023/08/16 00:30:51;;;;;;;;;3.00;3.00;;;;;25.15;46.43;101389.47;4979067;28;45274;-39
2023/08/16 00:33:17;;;;;;;;;4.00;4.00;;;;;25.14;46.59;101383.28;4978751;28;45399;-38
2023/08/16 00:35:42;;;;;;;;;4.75;3.00;;;;;25.14;46.83;101379.81;4978794;28;49658;-41
2023/08/16 00:38:07;;;;;;;;;2.50;2.25;;;;;25.14;46.79;101387.75;4977262;28;63282;-41
2023/08/16 00:40:32;;;;;;;;;2.75;2.75;;;;;25.13;46.53;101381.63;4961183;28;47997;-41
2023/08/16 00:42:58;;;;;;;;;2.33;2.33;;;;;25.15;46.60;101379.69;4978186;28;65236;-41
2023/08/16 00:45:23;;;;;;;;;3.00;3.00;;;;;25.14;46.94;101374.50;4979375;28;45306;-37
2023/08/16 00:47:48;;;;;;;;;3.00;3.00;;;;;25.14;46.83;101377.16;4978591;28;45342;-38
2023/08/16 00:50:14;;;;;;;;;3.25;2.25;;;;;25.14;46.76;101372.69;4978877;28;45408;-37
2023/08/16 00:52:40;;;;;;;;;3.50;2.50;;;;;25.14;46.95;101369.19;4979002;28;46219;-37
2023/08/16 00:55:08;;;;;;;;;3.50;2.25;;;;;25.13;46.62;101359.53;4979090;28;45588;-37
2023/08/16 00:57:33;;;;;;;;;3.00;3.00;;;;;25.13;46.31;101354.22;4978657;28;46333;-36
2023/08/16 00:59:59;;;;;;;;;3.00;3.00;;;;;25.13;46.60;101362.19;4961075;28;45267;-37
2023/08/16 01:02:25;;;;;;;;;3.00;3.00;;;;;25.13;46.77;101348.94;4961545;28;45464;-38
2023/08/16 01:04:50;;;;;;;;;3.00;3.00;;;;;25.12;46.85;101358.69;4978989;28;45498;-38
2023/08/16 01:07:15;;;;;;;;;3.25;3.00;;;;;25.11;46.34;101346.38;4961002;28;47112;-37
2023/08/16 01:09:41;;;;;;;;;3.00;3.00;;;;;25.12;46.24;101344.56;4978488;28;45325;-41
2023/08/16 01:12:36;;;;;;;;;3.00;2.00;;;;;25.14;46.88;101350.63;4978509;28;45467;-45
2023/08/16 01:15:17;;;;;;;;;3.00;3.00;;;;;25.11;46.34;101341.09;4978665;28;45348;-44
2023/08/16 01:17:43;;;;;;;;;2.00;2.00;;;;;25.12;46.22;101342.78;4978201;28;46644;-41
2023/08/16 01:20:10;;;;;;;;;3.50;2.25;;;;;25.12;46.58;101341.91;4978248;28;45246;-40
2023/08/16 01:23:06;;;;;;;;;2.25;2.25;;;;;25.11;46.61;101345.53;4978646;28;45389;-40
2023/08/16 01:25:37;;;;;;;;;4.25;2.50;;;;;25.11;46.27;101350.81;4966203;28;45369;-41
2023/08/16 01:28:03;;;;;;;;;4.25;2.75;;;;;25.11;46.40;101350.81;4978213;28;45381;-41
2023/08/16 01:30:30;;;;;;;;;2.00;2.00;;;;;25.12;46.32;101357.84;4978167;28;45706;-39
2023/08/16 01:32:55;;;;;;;;;3.75;2.75;;;;;25.10;46.40;101357.06;4978653;28;45369;-40
2023/08/16 01:35:21;;;;;;;;;4.00;2.00;;;;;25.10;46.83;101363.25;4978445;28;45309;-41
2023/08/16 01:37:47;;;;;;;;;3.50;2.00;;;;;25.11;46.39;101364.09;4977900;28;46010;-43
2023/08/16 01:40:13;;;;;;;;;4.00;2.00;;;;;25.10;46.91;101368.56;4978097;28;45327;-45
2023/08/16 01:42:47;;;;;;;;;3.00;3.00;;;;;25.09;46.45;101377.47;4978215;28;45342;-43
2023/08/16 01:45:15;;;;;;;;;2.00;2.00;;;;;25.09;46.34;101372.16;4978514;28;45445;-42
2023/08/16 01:47:42;;;;;;;;;4.00;2.75;;;;;25.08;46.20;101377.56;4977814;28;47019;-37
2023/08/16 01:50:08;;;;;;;;;5.00;3.00;;;;;25.09;46.72;101374.81;4977666;28;45701;-37
2023/08/16 01:52:34;;;;;;;;;3.00;3.00;;;;;25.08;46.58;101372.28;4977718;28;45397;-37
2023/08/16 01:55:00;;;;;;;;;5.00;2.00;;;;;25.10;46.78;101375.66;4978088;28;45464;-37
2023/08/16 01:57:25;;;;;;;;;4.00;3.00;;;;;25.08;46.35;101366.97;4978108;28;45409;-38
2023/08/16 01:59:50;;;;;;;;;2.00;2.00;;;;;25.10;46.38;101370.34;4977154;28;61747;-37
2023/08/16 02:02:16;;;;;;;;;3.00;2.00;;;;;25.09;46.10;101373.94;4977589;28;49601;-37
2023/08/16 02:04:41;;;;;;;;;2.00;1.00;;;;;25.07;46.28;101366.09;4978015;28;45464;-42
2023/08/16 02:07:06;;;;;;;;;2.50;2.00;;;;;25.09;46.29;101374.81;4977350;28;49409;-42
2023/08/16 02:09:32;;;;;;;;;1.25;1.25;;;;;25.08;46.78;101366.97;4977627;28;45429;-40
2023/08/16 02:11:57;;;;;;;;;2.00;2.00;;;;;25.08;46.79;101373.09;4978043;28;45323;-39
2023/08/16 02:14:23;;;;;;;;;3.00;2.00;;;;;25.09;46.60;101368.63;4977850;28;45504;-39
2023/08/16 02:16:48;;;;;;;;;2.25;2.25;;;;;25.08;46.75;101362.50;4977374;28;47177;-39
2023/08/16 02:19:13;;;;;;;;;3.25;3.00;;;;;25.08;46.22;101361.66;4977421;28;45436;-38
2023/08/16 02:21:38;;;;;;;;;3.00;3.00;;;;;25.08;46.50;101372.28;4976870;28;56722;-43
2023/08/16 02:24:04;;;;;;;;;3.00;3.00;;;;;25.07;46.03;101367.91;4977144;28;54159;-40
2023/08/16 02:26:29;;;;;;;;;2.25;2.25;;;;;25.06;46.69;101360.91;4977563;28;46175;-37
2023/08/16 02:28:55;;;;;;;;;2.25;2.25;;;;;25.07;46.29;101362.59;4977595;28;45477;-41
2023/08/16 02:31:20;;;;;;;;;3.75;2.00;;;;;25.07;46.56;101365.25;4977437;28;45180;-44
2023/08/16 02:33:45;;;;;;;;;3.75;2.25;;;;;25.06;46.37;101364.41;4977456;28;45234;-44
2023/08/16 02:36:11;;;;;;;;;2.50;2.50;;;;;25.06;46.67;101368.88;4977107;28;45993;-44
2023/08/16 02:38:36;;;;;;;;;3.00;2.00;;;;;25.06;46.30;101369.69;4977109;28;45255;-42
2023/08/16 02:41:01;;;;;;;;;2.00;2.00;;;;;25.06;46.48;101369.69;4977133;28;45339;-41
2023/08/16 02:43:27;;;;;;;;;1.50;1.50;;;;;25.07;46.17;101370.56;4977780;28;45575;-41
2023/08/16 02:45:53;;;;;;;;;2.00;2.00;;;;;25.06;46.72;101366.22;4976405;28;59822;-43
2023/08/16 02:48:18;;;;;;;;;2.75;1.50;;;;;25.07;46.75;101365.25;4977071;28;45710;-39
2023/08/16 02:50:44;;;;;;;;;2.25;1.00;;;;;25.05;46.31;101362.69;4976590;28;55333;-46
2023/08/16 02:53:09;;;;;;;;;2.50;2.00;;;;;25.06;45.96;101359.09;4977188;28;45586;-40
2023/08/16 02:55:35;;;;;;;;;2.25;1.00;;;;;25.05;46.28;101352.09;4976890;28;45367;-44
2023/08/16 02:58:00;;;;;;;;;3.00;3.00;;;;;25.06;46.43;101358.25;4977188;28;45290;-41
2023/08/16 03:00:25;;;;;;;;;2.00;2.00;;;;;25.06;46.41;101353.78;4976181;28;45385;-44
2023/08/16 03:02:51;;;;;;;;;2.00;2.00;;;;;25.06;45.83;101358.25;4977144;28;45266;-42
2023/08/16 03:05:16;;;;;;;;;2.00;2.00;;;;;25.05;45.86;101352.09;4975798;28;62962;-44
2023/08/16 03:07:41;;;;;;;;;1.50;1.00;;;;;25.05;45.92;101349.44;4976749;28;45951;-42
2023/08/16 03:10:07;;;;;;;;;1.75;1.50;;;;;25.05;46.22;101351.25;4976871;28;45367;-42
2023/08/16 03:12:33;;;;;;;;;2.25;2.25;;;;;25.06;46.29;101350.31;4976895;28;45459;-36
2023/08/16 03:14:58;;;;;;;;;2.00;2.00;;;;;25.05;46.01;101348.59;4976943;28;45324;-37
2023/08/16 03:17:24;;;;;;;;;1.25;1.25;;;;;25.05;46.19;101349.44;4976435;28;53532;-42
2023/08/16 03:19:49;;;;;;;;;3.00;1.25;;;;;25.04;46.12;101346.91;4976561;28;45417;-38
2023/08/16 03:22:14;;;;;;;;;2.00;2.00;;;;;25.03;46.01;101346.03;4976870;28;45505;-42
2023/08/16 03:24:40;;;;;;;;;2.00;2.00;;;;;25.05;45.99;101345.94;4976370;28;46337;-41
2023/08/16 03:27:05;;;;;;;;;1.50;1.50;;;;;25.05;46.09;101351.25;4976514;28;45355;-39
2023/08/16 03:29:30;;;;;;;;;2.00;2.00;;;;;25.04;45.66;101346.91;4976829;28;45220;-42
2023/08/16 03:31:56;;;;;;;;;2.75;2.00;;;;;25.05;46.36;101345.94;4976799;28;45318;-43
2023/08/16 03:34:22;;;;;;;;;2.00;2.00;;;;;25.04;46.33;101345.06;4976085;28;49377;-39
2023/08/16 03:36:47;;;;;;;;;3.00;3.00;;;;;25.05;45.96;101353.91;4976362;28;45732;-38
2023/08/16 03:39:13;;;;;;;;;2.00;2.00;;;;;25.04;45.58;101354.84;4975720;28;58706;-42
2023/08/16 03:41:38;;;;;;;;;2.25;2.00;;;;;25.04;45.97;101362.81;4976535;28;45372;-40
2023/08/16 03:44:06;;;;;;;;;2.00;2.00;;;;;25.04;46.18;101354.84;4976572;28;46182;-39
2023/08/16 03:46:31;;;;;;;;;1.00;1.00;;;;;25.03;45.89;101350.50;4976486;28;45432;-38
2023/08/16 03:48:56;;;;;;;;;4.50;3.00;;;;;25.04;46.19;101354.84;4975156;28;45364;-39
2023/08/16 03:51:22;;;;;;;;;2.00;2.00;;;;;25.01;45.94;101351.44;4976440;28;45437;-36
2023/08/16 03:53:47;;;;;;;;;2.00;2.00;;;;;25.03;46.19;101353.16;4976065;28;47013;-35
2023/08/16 03:56:12;;;;;;;;;2.75;2.75;;;;;25.03;45.85;101348.69;4976202;28;45302;-39
2023/08/16 03:58:38;;;;;;;;;2.50;2.00;;;;;25.03;46.08;101353.97;4976274;28;45428;-44
2023/08/16 04:01:03;;;;;;;;;2.75;2.75;;;;;25.02;45.60;101347.00;4976658;28;45352;-42
2023/08/16 04:03:28;;;;;;;;;3.00;3.00;;;;;24.99;45.87;101345.38;4975661;28;54398;-40
2023/08/16 04:05:54;;;;;;;;;1.00;1.00;;;;;25.03;46.00;101350.50;4975237;28;57065;-41
2023/08/16 04:08:19;;;;;;;;;2.25;2.00;;;;;25.02;45.93;101347.00;4976101;28;45317;-41
2023/08/16 04:10:44;;;;;;;;;2.00;2.00;;;;;25.02;45.31;101349.66;4976279;28;45305;-37
2023/08/16 04:13:10;;;;;;;;;3.00;2.50;;;;;25.00;46.01;101349.75;4978241;28;47143;-38
2023/08/16 04:15:35;;;;;;;;;4.00;2.25;;;;;25.00;45.80;101344.44;4979491;28;45228;-37
2023/08/16 04:18:00;;;;;;;;;1.00;1.00;;;;;25.00;45.46;101349.75;4979595;28;45318;-37
2023/08/16 04:20:26;;;;;;;;;3.00;2.00;;;;;24.99;45.41;101342.72;4979045;28;47901;-40
2023/08/16 04:22:51;;;;;;;;;2.75;1.75;;;;;25.01;45.61;101335.53;4978923;28;54829;-37
2023/08/16 04:25:17;;;;;;;;;2.50;2.50;;;;;25.00;45.95;101333.00;4978564;28;57902;-37
2023/08/16 04:27:42;;;;;;;;;1.00;1.00;;;;;25.00;45.25;101338.28;4978110;28;45369;-36
2023/08/16 04:30:09;;;;;;;;;2.25;2.00;;;;;25.00;45.58;101340.94;4979309;28;45600;-38
2023/08/16 04:32:35;;;;;;;;;3.75;2.00;;;;;25.00;45.26;101344.44;4979253;28;46243;-37
2023/08/16 04:35:01;;;;;;;;;2.00;2.00;;;;;24.99;45.50;101332.13;4979048;28;45365;-39
2023/08/16 04:37:26;;;;;;;;;1.50;1.50;;;;;24.99;45.59;101333.94;4979273;28;45534;-37
2023/08/16 04:39:52;;;;;;;;;2.00;2.00;;;;;24.99;45.44;101342.72;4978514;28;54014;-41
2023/08/16 04:42:18;;;;;;;;;1.00;1.00;;;;;24.98;45.82;101341.03;4978362;28;59376;-39
2023/08/16 04:44:44;;;;;;;;;3.00;3.00;;;;;24.98;45.56;101340.19;4961347;28;45680;-39
2023/08/16 04:47:09;;;;;;;;;1.00;1.00;;;;;24.99;45.65;101344.56;4979149;28;45504;-41
2023/08/16 04:49:35;;;;;;;;;2.25;2.25;;;;;24.99;45.75;101341.91;4979347;28;45582;-40
2023/08/16 04:52:00;;;;;;;;;1.75;1.75;;;;;24.97;45.47;101334.03;4978280;28;55783;-38
2023/08/16 04:54:25;;;;;;;;;3.00;3.00;;;;;24.97;45.23;101339.31;4978705;28;45219;-38
2023/08/16 04:56:51;;;;;;;;;3.00;1.75;;;;;24.98;45.38;101342.84;4978301;28;54747;-37
2023/08/16 04:59:17;;;;;;;;;1.50;1.50;;;;;24.97;45.76;101339.31;4961280;28;45254;-42
2023/08/16 05:01:43;;;;;;;;;2.50;2.50;;;;;24.98;45.04;101343.69;4978456;28;45931;-38
2023/08/16 05:04:09;;;;;;;;;2.00;2.00;;;;;24.97;45.12;101344.63;4978741;28;45327;-46
2023/08/16 05:06:36;;;;;;;;;1.25;1.00;;;;;24.98;45.52;101343.69;4979050;28;45416;-43
2023/08/16 05:09:02;;;;;;;;;1.50;1.50;;;;;24.97;44.95;101339.31;4978831;28;45666;-44
2023/08/16 05:11:28;;;;;;;;;3.00;2.00;;;;;24.97;45.59;101341.97;4978273;28;46725;-38
2023/08/16 05:13:53;;;;;;;;;1.00;1.00;;;;;24.96;45.47;101348.25;4978303;28;45498;-41
2023/08/16 05:16:19;;;;;;;;;4.00;2.50;;;;;24.96;45.27;101353.56;4978662;28;45326;-38
2023/08/16 05:18:44;;;;;;;;;3.00;3.00;;;;;24.95;45.40;101362.47;4978252;28;45537;-36
2023/08/16 05:21:09;;;;;;;;;2.00;2.00;;;;;24.96;45.63;101358.88;4977950;28;59498;-37
2023/08/16 05:23:35;;;;;;;;;3.00;3.00;;;;;24.95;45.50;101357.16;4977866;28;46950;-38
2023/08/16 05:26:00;;;;;;;;;2.00;2.00;;;;;24.96;45.58;101356.22;4978616;28;45222;-36
2023/08/16 05:28:26;;;;;;;;;2.00;2.00;;;;;24.95;45.14;101349.22;4978650;28;45229;-37
2023/08/16 05:30:51;;;;;;;;;2.00;2.00;;;;;24.93;45.43;101358.19;4978050;28;49392;-36
2023/08/16 05:33:17;;;;;;;;;1.00;1.00;;;;;24.93;45.49;101363.50;4978047;28;47247;-37
2023/08/16 05:35:42;;;;;;;;;3.25;2.00;;;;;24.91;44.74;101358.31;4978452;28;45675;-37
2023/08/16 05:38:07;;;;;;;;;2.75;2.00;;;;;24.89;44.91;101360.22;4978650;28;45224;-36
2023/08/16 05:40:33;;;;;;;;;1.00;1.00;;;;;24.88;44.93;101360.31;4977819;28;48849;-36
2023/08/16 05:42:58;;;;;;;;;3.00;1.75;;;;;24.86;44.71;101355.09;4978069;28;45381;-40
2023/08/16 05:45:26;;;;;;;;;4.00;2.00;;;;;24.84;45.03;101362.31;4978273;28;45255;-38
2023/08/16 05:47:52;;;;;;;;;1.00;1.00;;;;;24.84;45.41;101359.69;4978190;28;45678;-38
2023/08/16 05:50:18;;;;;;;;;1.50;1.50;;;;;24.83;44.80;101361.47;4977816;28;46640;-40
2023/08/16 05:52:43;;;;;;;;;1.75;1.75;;;;;24.82;44.79;101364.22;4978122;28;45428;-36
2023/08/16 05:55:08;;;;;;;;;2.00;1.00;;;;;24.81;44.96;101355.41;4978121;28;46262;-39
2023/08/16 05:57:34;;;;;;;;;1.25;1.25;;;;;24.79;44.89;101362.63;4977675;28;49895;-38
2023/08/16 05:59:59;;;;;;;;;2.00;2.00;;;;;24.79;44.80;101359.97;4977732;28;46082;-41
2023/08/16 06:02:24;;;;;;;;;1.00;1.00;;;;;24.79;45.06;101348.50;4977353;28;53527;-40
2023/08/16 06:04:51;;;;;;;;;4.00;2.50;;;;;24.78;45.32;101350.31;4975752;28;60561;-41
2023/08/16 06:07:17;;;;;;;;;4.00;3.00;;;;;24.79;44.98;101364.41;4978060;28;45179;-38
2023/08/16 06:09:42;;;;;;;;;4.00;2.00;;;;;24.78;45.06;101370.66;4978040;28;45354;-40
2023/08/16 06:12:08;;;;;;;;;1.00;1.00;;;;;24.79;45.33;101367.94;4978010;28;45354;-37
2023/08/16 06:14:33;;;;;;;;;2.00;2.00;;;;;24.80;45.02;101374.06;4977845;28;45239;-36
2023/08/16 06:16:58;;;;;;;;;2.00;2.00;;;;;24.81;45.40;101375.78;4977848;28;45604;-38
2023/08/16 06:19:24;;;;;;;;;2.00;2.00;;;;;24.80;44.99;101374.06;4977385;28;46564;-43
2023/08/16 06:21:50;;;;;;;;;2.00;2.00;;;;;24.82;45.06;101374.81;4977422;28;45251;-46
2023/08/16 06:24:15;;;;;;;;;1.75;1.75;;;;;24.81;45.08;101376.59;4977556;28;45344;-41
2023/08/16 06:26:40;;;;;;;;;3.00;2.00;;;;;24.82;45.03;101374.81;4978043;28;45267;-42
2023/08/16 06:29:06;;;;;;;;;1.75;1.75;;;;;24.83;44.96;101371.22;4959527;28;60086;-41
2023/08/16 06:31:31;;;;;;;;;2.00;2.00;;;;;24.83;44.71;101384.47;4959803;28;45414;-42
2023/08/16 06:33:56;;;;;;;;;2.00;2.00;;;;;24.82;44.83;101390.72;4976782;28;58827;-41
2023/08/16 06:36:24;;;;;;;;;2.00;2.00;;;;;24.82;44.79;101388.91;4975773;28;55084;-38
2023/08/16 06:38:49;;;;;;;;;2.25;2.25;;;;;24.83;45.02;101384.47;4977329;28;46403;-41
2023/08/16 06:41:16;;;;;;;;;2.00;2.00;;;;;24.83;45.44;101384.47;4977053;28;45447;-36
2023/08/16 06:43:41;;;;;;;;;2.00;2.00;;;;;24.84;44.89;101391.50;4977477;28;45347;-43
2023/08/16 06:46:07;;;;;;;;;3.00;3.00;;;;;24.85;45.15;101387.91;4976713;28;55636;-40
2023/08/16 06:48:32;;;;;;;;;4.25;2.00;;;;;24.86;45.24;101381.59;4976842;28;46900;-38
2023/08/16 06:50:58;;;;;;;;;3.75;2.00;;;;;24.85;45.17;101369.34;4976960;28;45437;-40
2023/08/16 06:53:25;;;;;;;;;3.00;3.00;;;;;24.86;44.80;101384.25;4976923;28;45230;-36
2023/08/16 06:55:53;;;;;;;;;3.00;2.00;;;;;24.84;44.86;101386.19;4975713;28;45450;-37
2023/08/16 06:58:18;;;;;;;;;3.25;2.00;;;;;24.83;45.13;101384.47;4976723;28;45357;-41
2023/08/16 07:00:45;;;;;;;;;2.00;2.00;;;;;24.81;45.04;101386.38;4976884;28;45357;-38
2023/08/16 07:03:11;;;;;;;;;2.75;2.75;;;;;24.80;45.40;101390.84;4976909;28;45830;-41
2023/08/16 07:05:36;;;;;;;;;4.50;3.00;;;;;24.78;45.64;101383.91;4976918;28;45180;-40
2023/08/16 07:08:01;;;;;;;;;5.00;4.00;;;;;24.79;45.25;101385.63;4976196;28;55690;-42
2023/08/16 07:10:27;;;;;;;;;4.00;3.00;;;;;24.78;45.13;101394.53;4975317;28;45400;-39
2023/08/16 07:12:52;;;;;;;;;3.50;2.50;;;;;24.76;45.45;101385.81;4976653;28;45235;-41
2023/08/16 07:15:17;;;;;;;;;2.75;2.75;;;;;24.78;45.91;101392.75;4976648;28;45519;-42
2023/08/16 07:17:43;;;;;;;;;3.00;3.00;;;;;24.77;45.29;101387.50;4976505;28;56046;-38
2023/08/16 07:20:08;;;;;;;;;3.00;3.00;;;;;24.75;45.94;101384.13;4976325;28;50629;-40
2023/08/16 07:22:37;;;;;;;;;2.50;2.50;;;;;24.75;45.72;101378.84;4976608;28;45284;-37
2023/08/16 07:25:03;;;;;;;;;2.25;2.25;;;;;24.75;45.91;101384.13;4976698;28;45564;-39
2023/08/16 07:27:29;;;;;;;;;4.00;3.00;;;;;24.74;46.01;101379.78;4975789;28;46179;-37
2023/08/16 07:29:54;;;;;;;;;3.00;2.75;;;;;24.73;45.65;101383.38;4975254;28;52178;-36
2023/08/16 07:32:20;;;;;;;;;3.00;3.00;;;;;24.72;45.86;101387.81;4975189;28;55401;-37
2023/08/16 07:34:45;;;;;;;;;4.00;2.50;;;;;24.71;45.71;101391.41;4976717;28;45579;-36
2023/08/16 07:37:11;;;;;;;;;6.25;3.25;;;;;24.70;45.65;101390.56;4975500;28;62331;-39
2023/08/16 07:39:36;;;;;;;;;4.25;3.00;;;;;24.69;45.64;101378.28;4976259;28;45423;-40
2023/08/16 07:42:01;;;;;;;;;9.00;4.00;;;;;24.68;45.84;101373.91;4976332;28;45195;-40
2023/08/16 07:44:27;;;;;;;;;3.00;2.50;;;;;24.69;45.64;101383.56;4976486;28;45694;-40
2023/08/16 07:46:52;;;;;;;;;3.50;3.50;;;;;24.69;45.98;101377.44;4991576;28;52523;-39
2023/08/16 07:49:17;;;;;;;;;3.00;3.00;;;;;24.71;46.18;101372.84;4979877;28;45214;-41
2023/08/16 07:51:43;;;;;;;;;6.50;4.00;;;;;24.73;46.25;101376.25;4979736;28;45255;-42
2023/08/16 07:54:08;;;;;;;;;8.00;5.00;;;;;24.73;45.79;101373.63;4979457;28;48903;-44
2023/08/16 07:56:33;;;;;;;;;9.00;6.50;;;;;24.75;45.89;101382.31;4979364;28;46169;-40
2023/08/16 07:58:59;;;;;;;;;9.75;6.25;;;;;24.75;46.13;101370.88;4978817;28;59426;-42
2023/08/16 08:01:24;;;;;;;;;8.00;5.00;;;;;24.77;46.17;101382.22;4979568;28;45324;-41
2023/08/16 08:03:49;;;;;;;;;7.50;4.00;;;;;24.78;46.58;101378.63;4979241;28;50569;-38
2023/08/16 08:06:14;;;;;;;;;5.75;3.75;;;;;24.77;45.90;101382.22;4979145;28;60399;-38
2023/08/16 08:08:40;;;;;;;;;5.00;4.00;;;;;24.79;46.74;101369.72;4979381;28;45450;-36
2023/08/16 08:11:09;;;;;;;;;6.75;4.75;;;;;24.77;46.37;101367.19;4979324;28;45404;-37
2023/08/16 08:13:34;;;;;;;;;4.25;4.25;;;;;24.80;46.29;101376.72;4979510;28;45493;-36
2023/08/16 08:16:00;;;;;;;;;9.50;6.25;;;;;24.81;46.26;101386.38;4979116;28;45432;-36
2023/08/16 08:18:25;;;;;;;;;10.00;7.00;;;;;24.80;46.37;101374.06;4979246;28;45697;-42
2023/08/16 08:20:51;;;;;;;;;11.75;5.50;;;;;24.83;46.18;101387.13;4979159;28;45186;-39
2023/08/16 08:23:16;;;;;;;;;10.00;5.75;;;;;24.85;46.46;101395.84;4979716;28;45484;-41
2023/08/16 08:25:44;;;;;;;;;6.00;5.00;;;;;24.87;46.76;101388.63;4977773;28;46740;-38
2023/08/16 08:28:09;;;;;;;;;12.00;5.00;;;;;24.88;46.61;101382.38;4979015;28;45717;-39
2023/08/16 08:30:35;;;;;;;;;5.50;4.00;;;;;24.89;46.13;101389.38;4979153;28;45214;-38
2023/08/16 08:33:00;;;;;;;;;5.50;3.50;;;;;24.90;46.71;101393.72;4979123;28;45322;-39
2023/08/16 08:35:26;;;;;;;;;9.75;4.00;;;;;24.91;46.14;101391.94;4978955;28;45840;-39
2023/08/16 08:37:51;;;;;;;;;3.75;3.75;;;;;24.90;46.88;101399.03;4979301;28;45979;-41
2023/08/16 08:40:18;;;;;;;;;5.50;5.50;;;;;24.92;46.64;101398.91;4979429;28;46046;-46
2023/08/16 08:42:46;;;;;;;;;4.00;4.00;;;;;24.93;46.87;101409.44;4979177;28;45332;-44
2023/08/16 08:45:15;;;;;;;;;4.00;3.75;;;;;24.93;46.90;101406.78;4978902;28;46474;-39
2023/08/16 08:47:43;;;;;;;;;8.25;5.00;;;;;24.95;46.91;101407.56;4978779;28;45373;-38
2023/08/16 08:50:09;;;;;;;;;12.00;6.00;;;;;24.99;46.60;101410.84;4977433;28;45409;-41
2023/08/16 08:52:35;;;;;;;;;10.00;6.00;;;;;25.01;46.21;101407.13;4978991;28;45391;-37
2023/08/16 08:55:01;;;;;;;;;7.50;5.00;;;;;25.03;46.56;101408.84;4978748;28;45304;-37
2023/08/16 08:57:29;;;;;;;;;5.25;4.00;;;;;25.03;46.36;101406.19;4978675;28;45831;-39
2023/08/16 08:59:58;;;;;;;;;5.00;4.75;;;;;25.05;46.57;101414.91;4977971;28;45180;-36
2023/08/16 09:02:24;;;;;;;;;8.25;3.75;;;;;25.05;46.74;101410.44;4977709;28;45425;-40
2023/08/16 09:04:51;;;;;;;;;4.00;4.00;;;;;25.05;46.92;101410.44;4978658;28;46271;-36
2023/08/16 09:07:18;;;;;;;;;6.75;5.25;;;;;25.05;46.83;101399.81;4993983;28;45723;-39
2023/08/16 09:09:44;;;;;;;;;4.00;4.00;;;;;25.07;46.72;101397.94;4978763;28;45321;-40
2023/08/16 09:12:13;;;;;;;;;5.00;3.75;;;;;25.08;46.67;101381.06;4978783;28;45250;-37
2023/08/16 09:14:38;;;;;;;;;4.75;4.75;;;;;25.09;46.89;101376.59;4978311;28;46588;-38
2023/08/16 09:17:04;;;;;;;;;8.25;4.00;;;;;25.11;46.39;101387.94;4977922;28;60369;-39
2023/08/16 09:19:29;;;;;;;;;9.00;4.50;;;;;25.10;46.57;101391.56;4978379;28;45322;-39
2023/08/16 09:21:56;;;;;;;;;3.75;3.75;;;;;25.12;46.97;101397.63;4978209;28;46206;-38
2023/08/16 09:24:25;;;;;;;;;3.50;3.00;;;;;25.12;47.08;101393.19;4978453;28;46190;-41
2023/08/16 09:26:52;;;;;;;;;3.25;3.25;;;;;25.13;46.32;101391.38;4978663;28;45441;-37
2023/08/16 09:29:17;;;;;;;;;6.50;4.00;;;;;25.14;46.38;101387.75;4978572;28;45439;-42
2023/08/16 09:31:44;;;;;;;;;3.25;3.25;;;;;25.14;46.62;101385.94;4978444;28;45493;-40
2023/08/16 09:34:12;;;;;;;;;10.50;4.50;;;;;25.16;46.38;101385.88;4978026;28;46634;-38
2023/08/16 09:36:41;;;;;;;;;6.00;3.25;;;;;25.16;46.49;101385.88;4978555;28;45655;-39
2023/08/16 09:39:09;;;;;;;;;5.75;5.75;;;;;25.16;46.76;101381.41;4978156;28;45400;-37
2023/08/16 09:41:34;;;;;;;;;5.75;4.00;;;;;25.17;46.95;101384.91;4978249;28;45339;-37
2023/08/16 09:44:04;;;;;;;;;4.50;3.50;;;;;25.18;46.49;101386.63;4976846;28;47193;-37
2023/08/16 09:46:30;;;;;;;;;5.75;4.00;;;;;25.17;47.10;101372.47;4978070;28;45290;-40
2023/08/16 09:49:02;;;;;;;;;5.00;5.00;;;;;25.17;46.57;101364.53;4978488;28;45370;-37
2023/08/16 09:51:27;;;;;;;;;7.75;4.25;;;;;25.19;46.56;101372.38;4978093;28;45262;-37
2023/08/16 09:53:53;;;;;;;;;5.00;3.75;;;;;25.21;47.05;101366.97;4977953;28;46621;-38
2023/08/16 09:56:20;;;;;;;;;3.50;3.00;;;;;25.21;46.67;101365.16;4977767;28;45380;-43
2023/08/16 09:58:46;;;;;;;;;5.50;5.50;;;;;25.21;46.67;101362.50;4977870;28;45384;-36
2023/08/16 10:01:12;;;;;;;;;2.00;2.00;;;;;25.22;46.56;101361.56;4977939;28;45583;-39
2023/08/16 10:03:38;;;;;;;;;9.00;5.00;;;;;25.24;46.69;101345.56;4977467;28;45432;-38
2023/08/16 10:06:04;;;;;;;;;4.25;4.00;;;;;25.24;46.62;101343.75;4977556;28;45273;-40
2023/08/16 10:08:30;;;;;;;;;6.00;4.25;;;;;25.25;47.00;101337.50;4977798;28;45328;-42
2023/08/16 10:10:57;;;;;;;;;8.00;4.25;;;;;25.24;46.87;101330.47;4978048;28;45270;-40
2023/08/16 10:13:23;;;;;;;;;4.25;4.00;;;;;25.26;46.87;101333.88;4977979;28;46376;-39
2023/08/16 10:15:52;;;;;;;;;8.00;5.00;;;;;25.27;46.70;101319.66;4977659;28;45408;-36
2023/08/16 10:18:23;;;;;;;;;7.00;5.00;;;;;25.27;46.33;101314.38;4977567;28;45264;-41
2023/08/16 10:20:49;;;;;;;;;6.00;4.50;;;;;25.28;46.65;101316.06;4977694;28;45452;-44
2023/08/16 10:23:19;;;;;;;;;7.25;5.75;;;;;25.28;46.29;101326.69;4977289;28;45590;-48
2023/08/16 10:25:48;;;;;;;;;4.50;3.75;;;;;25.29;46.62;101328.38;4977254;28;45350;-41
2023/08/16 10:28:23;;;;;;;;;5.00;3.00;;;;;25.31;46.17;101325.63;4977474;28;45203;-43
2023/08/16 10:30:52;;;;;;;;;7.75;3.50;;;;;25.31;46.46;101326.44;4977623;28;45174;-46
2023/08/16 10:33:33;;;;;;;;;7.00;3.00;;;;;25.32;46.19;101328.16;4977238;28;46368;-43
2023/08/16 10:36:01;;;;;;;;;6.75;3.00;;;;;25.32;46.65;101329.97;4977547;28;45784;-42
2023/08/16 10:38:37;;;;;;;;;3.25;3.25;;;;;25.32;46.66;101325.50;4977665;28;45439;-47
2023/08/16 10:41:09;;;;;;;;;6.75;4.00;;;;;25.34;46.27;101319.25;4977461;28;45339;-48
2023/08/16 10:43:34;;;;;;;;;3.00;3.00;;;;;25.33;46.64;101321.06;4977089;28;46139;-42
2023/08/16 10:46:00;;;;;;;;;3.00;3.00;;;;;25.33;46.10;101321.06;4977153;28;45329;-37
2023/08/16 10:48:33;;;;;;;;;4.75;4.25;;;;;25.36;46.55;101323.47;4977586;28;45318;-41
2023/08/16 10:51:03;;;;;;;;;2.50;2.00;;;;;25.36;46.02;101323.47;4977583;28;45416;-46
2023/08/16 10:53:28;;;;;;;;;4.50;4.00;;;;;25.37;45.83;101319.88;4977298;28;45365;-45
2023/08/16 10:55:55;;;;;;;;;5.00;4.00;;;;;25.39;46.01;101327.75;4976931;28;45316;-43
2023/08/16 10:58:25;;;;;;;;;2.25;2.25;;;;;25.39;46.36;101319.78;4975758;28;45468;-45
2023/08/16 11:00:58;;;;;;;;;4.25;3.00;;;;;25.39;46.17;101320.63;4977105;28;45242;-38
2023/08/16 11:03:31;;;;;;;;;3.00;3.00;;;;;25.40;45.74;101313.53;4976868;28;45374;-39
2023/08/16 11:05:59;;;;;;;;;2.50;2.50;;;;;25.41;46.23;101315.25;4977003;28;45656;-38
2023/08/16 11:08:29;;;;;;;;;4.00;3.00;;;;;25.40;46.10;101313.53;4977126;28;45305;-36
2023/08/16 11:10:55;;;;;;;;;3.75;2.00;;;;;25.40;45.59;101314.41;4976939;28;45481;-39
2023/08/16 11:13:20;;;;;;;;;2.00;2.00;;;;;25.42;45.90;101311.63;4976722;28;46280;-37
2023/08/16 11:15:47;;;;;;;;;4.00;2.50;;;;;25.41;45.32;101310.78;4991416;28;53495;-36
2023/08/16 11:18:12;;;;;;;;;1.50;1.50;;;;;25.42;45.66;101307.19;4976763;28;45429;-35
2023/08/16 11:20:38;;;;;;;;;5.00;2.00;;;;;25.43;45.59;101300.06;4976799;28;45324;-36